sensor_id;sensor_type;location;lat;lon;timestamp;P1;durP1;ratioP1;P2;durP2;ratioP2
16760;SDS011;8498;52.516;13.790;2023-05-06T00:05:07;10.20;;;4.23;;
16760;SDS011;8498;52.516;13.790;2023-05-06T00:10:30;5.43;;;3.70;;
16760;SDS011;8498;52.516;13.790;2023-05-06T00:15:52;9.13;;;4.20;;
16760;SDS011;8498;52.516;13.790;2023-05-06T00:21:15;6.37;;;4.00;;
16760;SDS011;8498;52.516;13.790;2023-05-06T00:26:37;6.23;;;4.00;;
16760;SDS011;8498;52.516;13.790;2023-05-06T00:32:00;6.93;;;4.07;;
16760;SDS011;8498;52.516;13.790;2023-05-06T00:37:22;7.30;;;4.00;;
16760;SDS011;8498;52.516;13.790;2023-05-06T00:42:44;11.10;;;4.73;;
16760;SDS011;8498;52.516;13.790;2023-05-06T00:48:07;11.67;;;4.57;;
16760;SDS011;8498;52.516;13.790;2023-05-06T00:53:30;9.53;;;4.00;;
16760;SDS011;8498;52.516;13.790;2023-05-06T00:58:53;11.13;;;4.33;;
16760;SDS011;8498;52.516;13.790;2023-05-06T01:04:16;9.57;;;5.07;;
16760;SDS011;8498;52.516;13.790;2023-05-06T01:21:01;11.33;;;5.00;;
16760;SDS011;8498;52.516;13.790;2023-05-06T01:26:26;10.80;;;5.03;;
16760;SDS011;8498;52.516;13.790;2023-05-06T01:31:49;8.57;;;4.33;;
16760;SDS011;8498;52.516;13.790;2023-05-06T01:37:17;8.90;;;4.73;;
16760;SDS011;8498;52.516;13.790;2023-05-06T01:42:50;12.37;;;5.17;;
16760;SDS011;8498;52.516;13.790;2023-05-06T01:48:13;8.50;;;4.37;;
16760;SDS011;8498;52.516;13.790;2023-05-06T01:53:36;13.60;;;4.93;;
16760;SDS011;8498;52.516;13.790;2023-05-06T01:58:59;9.87;;;5.17;;
16760;SDS011;8498;52.516;13.790;2023-05-06T02:04:22;7.17;;;4.00;;
16760;SDS011;8498;52.516;13.790;2023-05-06T02:09:44;14.40;;;5.23;;
16760;SDS011;8498;52.516;13.790;2023-05-06T02:15:07;14.83;;;4.83;;
16760;SDS011;8498;52.516;13.790;2023-05-06T02:20:31;9.93;;;4.67;;
16760;SDS011;8498;52.516;13.790;2023-05-06T02:25:54;11.77;;;5.23;;
16760;SDS011;8498;52.516;13.790;2023-05-06T02:31:18;8.77;;;5.00;;
16760;SDS011;8498;52.516;13.790;2023-05-06T02:36:42;12.43;;;5.20;;
16760;SDS011;8498;52.516;13.790;2023-05-06T02:42:04;11.43;;;4.93;;
16760;SDS011;8498;52.516;13.790;2023-05-06T02:47:26;9.67;;;4.57;;
16760;SDS011;8498;52.516;13.790;2023-05-06T02:52:49;7.00;;;4.60;;
16760;SDS011;8498;52.516;13.790;2023-05-06T02:58:11;8.07;;;4.97;;
16760;SDS011;8498;52.516;13.790;2023-05-06T03:03:34;8.37;;;4.73;;
16760;SDS011;8498;52.516;13.790;2023-05-06T03:08:57;14.87;;;5.17;;
16760;SDS011;8498;52.516;13.790;2023-05-06T03:14:19;6.17;;;4.70;;
16760;SDS011;8498;52.516;13.790;2023-05-06T03:19:43;8.23;;;4.87;;
16760;SDS011;8498;52.516;13.790;2023-05-06T03:25:07;7.67;;;4.97;;
16760;SDS011;8498;52.516;13.790;2023-05-06T03:30:33;12.67;;;4.83;;
16760;SDS011;8498;52.516;13.790;2023-05-06T03:35:59;7.27;;;4.93;;
16760;SDS011;8498;52.516;13.790;2023-05-06T03:41:22;10.13;;;5.33;;
16760;SDS011;8498;52.516;13.790;2023-05-06T03:46:45;8.73;;;4.93;;
16760;SDS011;8498;52.516;13.790;2023-05-06T03:52:08;11.57;;;5.40;;
16760;SDS011;8498;52.516;13.790;2023-05-06T03:57:30;10.90;;;4.97;;
16760;SDS011;8498;52.516;13.790;2023-05-06T04:02:53;8.13;;;5.10;;
16760;SDS011;8498;52.516;13.790;2023-05-06T04:08:25;11.40;;;5.30;;
16760;SDS011;8498;52.516;13.790;2023-05-06T04:13:49;12.43;;;5.03;;
16760;SDS011;8498;52.516;13.790;2023-05-06T04:19:15;11.10;;;5.10;;
16760;SDS011;8498;52.516;13.790;2023-05-06T04:24:40;10.93;;;5.07;;
16760;SDS011;8498;52.516;13.790;2023-05-06T04:30:04;10.47;;;5.47;;
16760;SDS011;8498;52.516;13.790;2023-05-06T04:35:32;10.53;;;5.00;;
16760;SDS011;8498;52.516;13.790;2023-05-06T04:40:55;8.97;;;5.07;;
16760;SDS011;8498;52.516;13.790;2023-05-06T04:46:18;7.87;;;4.80;;
16760;SDS011;8498;52.516;13.790;2023-05-06T04:51:42;10.73;;;5.13;;
16760;SDS011;8498;52.516;13.790;2023-05-06T04:57:04;8.90;;;5.63;;
16760;SDS011;8498;52.516;13.790;2023-05-06T05:02:28;8.40;;;5.20;;
16760;SDS011;8498;52.516;13.790;2023-05-06T05:07:50;11.57;;;5.93;;
16760;SDS011;8498;52.516;13.790;2023-05-06T05:13:13;15.63;;;6.03;;
16760;SDS011;8498;52.516;13.790;2023-05-06T05:18:37;9.63;;;5.40;;
16760;SDS011;8498;52.516;13.790;2023-05-06T05:24:07;11.77;;;5.70;;
16760;SDS011;8498;52.516;13.790;2023-05-06T05:29:30;9.03;;;4.87;;
16760;SDS011;8498;52.516;13.790;2023-05-06T05:34:54;9.10;;;5.50;;
16760;SDS011;8498;52.516;13.790;2023-05-06T05:40:19;9.97;;;5.33;;
16760;SDS011;8498;52.516;13.790;2023-05-06T05:45:45;11.77;;;5.80;;
16760;SDS011;8498;52.516;13.790;2023-05-06T05:51:08;8.67;;;5.27;;
16760;SDS011;8498;52.516;13.790;2023-05-06T05:56:31;9.97;;;5.17;;
16760;SDS011;8498;52.516;13.790;2023-05-06T06:01:53;8.13;;;5.27;;
16760;SDS011;8498;52.516;13.790;2023-05-06T06:07:16;10.87;;;5.40;;
16760;SDS011;8498;52.516;13.790;2023-05-06T06:12:40;15.47;;;5.87;;
16760;SDS011;8498;52.516;13.790;2023-05-06T06:18:02;10.90;;;6.33;;
16760;SDS011;8498;52.516;13.790;2023-05-06T06:23:25;10.90;;;5.53;;
16760;SDS011;8498;52.516;13.790;2023-05-06T06:28:48;10.27;;;5.73;;
16760;SDS011;8498;52.516;13.790;2023-05-06T06:34:10;12.50;;;5.57;;
16760;SDS011;8498;52.516;13.790;2023-05-06T06:39:33;14.97;;;7.07;;
16760;SDS011;8498;52.516;13.790;2023-05-06T06:44:57;11.73;;;6.50;;
16760;SDS011;8498;52.516;13.790;2023-05-06T06:50:19;13.00;;;6.87;;
16760;SDS011;8498;52.516;13.790;2023-05-06T06:55:42;12.73;;;6.53;;
16760;SDS011;8498;52.516;13.790;2023-05-06T07:01:06;16.03;;;7.03;;
16760;SDS011;8498;52.516;13.790;2023-05-06T07:06:28;14.00;;;6.87;;
16760;SDS011;8498;52.516;13.790;2023-05-06T07:11:51;13.13;;;6.70;;
16760;SDS011;8498;52.516;13.790;2023-05-06T07:17:13;10.77;;;7.00;;
16760;SDS011;8498;52.516;13.790;2023-05-06T07:22:35;11.20;;;7.40;;
16760;SDS011;8498;52.516;13.790;2023-05-06T07:27:58;19.60;;;8.37;;
16760;SDS011;8498;52.516;13.790;2023-05-06T07:33:21;14.57;;;8.50;;
16760;SDS011;8498;52.516;13.790;2023-05-06T07:38:43;15.93;;;8.57;;
16760;SDS011;8498;52.516;13.790;2023-05-06T07:44:06;20.30;;;8.37;;
16760;SDS011;8498;52.516;13.790;2023-05-06T07:49:29;17.50;;;8.90;;
16760;SDS011;8498;52.516;13.790;2023-05-06T07:54:54;20.77;;;9.70;;
16760;SDS011;8498;52.516;13.790;2023-05-06T08:00:16;15.73;;;8.77;;
16760;SDS011;8498;52.516;13.790;2023-05-06T08:05:39;13.83;;;8.67;;
16760;SDS011;8498;52.516;13.790;2023-05-06T08:11:01;14.83;;;8.70;;
16760;SDS011;8498;52.516;13.790;2023-05-06T08:16:24;17.33;;;8.77;;
16760;SDS011;8498;52.516;13.790;2023-05-06T08:21:47;15.90;;;8.33;;
16760;SDS011;8498;52.516;13.790;2023-05-06T08:27:09;12.57;;;8.40;;
16760;SDS011;8498;52.516;13.790;2023-05-06T08:32:34;14.83;;;9.17;;
16760;SDS011;8498;52.516;13.790;2023-05-06T08:37:56;11.67;;;7.13;;
16760;SDS011;8498;52.516;13.790;2023-05-06T08:43:19;10.33;;;6.70;;
16760;SDS011;8498;52.516;13.790;2023-05-06T08:48:42;8.33;;;6.47;;
16760;SDS011;8498;52.516;13.790;2023-05-06T08:54:06;9.33;;;6.87;;
16760;SDS011;8498;52.516;13.790;2023-05-06T08:59:30;9.33;;;5.80;;
16760;SDS011;8498;52.516;13.790;2023-05-06T09:04:54;11.77;;;6.87;;
16760;SDS011;8498;52.516;13.790;2023-05-06T09:10:18;10.10;;;6.60;;
16760;SDS011;8498;52.516;13.790;2023-05-06T09:15:41;7.97;;;5.50;;
16760;SDS011;8498;52.516;13.790;2023-05-06T09:21:05;9.20;;;6.10;;
16760;SDS011;8498;52.516;13.790;2023-05-06T09:26:28;7.97;;;5.73;;
16760;SDS011;8498;52.516;13.790;2023-05-06T09:31:54;7.87;;;5.80;;
16760;SDS011;8498;52.516;13.790;2023-05-06T09:37:17;8.43;;;4.90;;
16760;SDS011;8498;52.516;13.790;2023-05-06T09:42:42;6.97;;;5.57;;
16760;SDS011;8498;52.516;13.790;2023-05-06T09:48:05;8.80;;;4.93;;
16760;SDS011;8498;52.516;13.790;2023-05-06T09:53:29;10.73;;;4.90;;
16760;SDS011;8498;52.516;13.790;2023-05-06T09:58:54;5.03;;;4.53;;
16760;SDS011;8498;52.516;13.790;2023-05-06T10:04:17;6.37;;;4.50;;
16760;SDS011;8498;52.516;13.790;2023-05-06T10:09:47;6.37;;;4.20;;
16760;SDS011;8498;52.516;13.790;2023-05-06T10:15:10;4.90;;;4.40;;
16760;SDS011;8498;52.516;13.790;2023-05-06T10:20:33;4.23;;;3.83;;
16760;SDS011;8498;52.516;13.790;2023-05-06T10:25:59;5.20;;;4.23;;
16760;SDS011;8498;52.516;13.790;2023-05-06T10:31:28;5.13;;;3.90;;
16760;SDS011;8498;52.516;13.790;2023-05-06T10:36:52;5.97;;;3.60;;
16760;SDS011;8498;52.516;13.790;2023-05-06T10:42:19;4.27;;;3.80;;
16760;SDS011;8498;52.516;13.790;2023-05-06T10:53:16;4.37;;;3.97;;
16760;SDS011;8498;52.516;13.790;2023-05-06T10:59:21;4.73;;;4.27;;
16760;SDS011;8498;52.516;13.790;2023-05-06T11:04:49;6.90;;;4.63;;
16760;SDS011;8498;52.516;13.790;2023-05-06T11:10:14;5.17;;;4.33;;
16760;SDS011;8498;52.516;13.790;2023-05-06T11:15:37;5.70;;;4.07;;
16760;SDS011;8498;52.516;13.790;2023-05-06T11:26:23;6.73;;;4.60;;
16760;SDS011;8498;52.516;13.790;2023-05-06T11:31:46;5.43;;;4.17;;
16760;SDS011;8498;52.516;13.790;2023-05-06T11:37:08;5.10;;;4.20;;
16760;SDS011;8498;52.516;13.790;2023-05-06T11:42:31;5.27;;;4.27;;
16760;SDS011;8498;52.516;13.790;2023-05-06T11:47:53;5.10;;;4.00;;
16760;SDS011;8498;52.516;13.790;2023-05-06T11:53:17;4.57;;;3.93;;
16760;SDS011;8498;52.516;13.790;2023-05-06T11:58:41;3.57;;;3.27;;
16760;SDS011;8498;52.516;13.790;2023-05-06T12:04:04;6.33;;;3.33;;
16760;SDS011;8498;52.516;13.790;2023-05-06T12:09:27;3.70;;;3.10;;
16760;SDS011;8498;52.516;13.790;2023-05-06T12:14:51;3.20;;;2.87;;
16760;SDS011;8498;52.516;13.790;2023-05-06T12:20:14;5.17;;;3.03;;
16760;SDS011;8498;52.516;13.790;2023-05-06T12:25:37;3.40;;;3.10;;
16760;SDS011;8498;52.516;13.790;2023-05-06T12:31:16;4.73;;;3.00;;
16760;SDS011;8498;52.516;13.790;2023-05-06T12:36:44;5.60;;;3.10;;
16760;SDS011;8498;52.516;13.790;2023-05-06T12:42:08;6.80;;;3.27;;
16760;SDS011;8498;52.516;13.790;2023-05-06T12:47:30;3.33;;;2.80;;
16760;SDS011;8498;52.516;13.790;2023-05-06T12:52:53;3.60;;;2.60;;
16760;SDS011;8498;52.516;13.790;2023-05-06T12:58:16;3.20;;;2.90;;
16760;SDS011;8498;52.516;13.790;2023-05-06T13:03:39;3.37;;;2.80;;
16760;SDS011;8498;52.516;13.790;2023-05-06T13:09:02;4.10;;;2.43;;
16760;SDS011;8498;52.516;13.790;2023-05-06T13:14:25;3.23;;;2.83;;
16760;SDS011;8498;52.516;13.790;2023-05-06T13:19:47;4.80;;;2.73;;
16760;SDS011;8498;52.516;13.790;2023-05-06T13:25:10;2.63;;;2.43;;
16760;SDS011;8498;52.516;13.790;2023-05-06T13:30:32;3.27;;;2.90;;
16760;SDS011;8498;52.516;13.790;2023-05-06T13:35:55;4.37;;;2.40;;
16760;SDS011;8498;52.516;13.790;2023-05-06T13:41:18;2.37;;;2.27;;
16760;SDS011;8498;52.516;13.790;2023-05-06T13:46:40;3.20;;;2.50;;
16760;SDS011;8498;52.516;13.790;2023-05-06T13:52:06;4.23;;;2.43;;
16760;SDS011;8498;52.516;13.790;2023-05-06T13:57:29;2.67;;;2.47;;
16760;SDS011;8498;52.516;13.790;2023-05-06T14:02:52;2.77;;;2.27;;
16760;SDS011;8498;52.516;13.790;2023-05-06T14:08:14;2.70;;;2.50;;
16760;SDS011;8498;52.516;13.790;2023-05-06T14:13:38;3.57;;;2.70;;
16760;SDS011;8498;52.516;13.790;2023-05-06T14:19:01;2.70;;;2.50;;
16760;SDS011;8498;52.516;13.790;2023-05-06T14:24:24;3.03;;;2.40;;
16760;SDS011;8498;52.516;13.790;2023-05-06T14:29:46;4.13;;;3.07;;
16760;SDS011;8498;52.516;13.790;2023-05-06T14:35:09;2.60;;;2.40;;
16760;SDS011;8498;52.516;13.790;2023-05-06T14:40:32;2.77;;;2.57;;
16760;SDS011;8498;52.516;13.790;2023-05-06T14:45:54;5.27;;;2.77;;
16760;SDS011;8498;52.516;13.790;2023-05-06T14:51:16;6.63;;;3.57;;
16760;SDS011;8498;52.516;13.790;2023-05-06T14:56:39;4.13;;;3.00;;
16760;SDS011;8498;52.516;13.790;2023-05-06T15:02:02;5.50;;;3.20;;
16760;SDS011;8498;52.516;13.790;2023-05-06T15:07:25;3.20;;;2.90;;
16760;SDS011;8498;52.516;13.790;2023-05-06T15:12:47;3.73;;;3.07;;
16760;SDS011;8498;52.516;13.790;2023-05-06T15:18:10;6.20;;;4.07;;
16760;SDS011;8498;52.516;13.790;2023-05-06T15:23:34;6.40;;;4.13;;
16760;SDS011;8498;52.516;13.790;2023-05-06T15:28:56;3.60;;;3.10;;
16760;SDS011;8498;52.516;13.790;2023-05-06T15:34:19;2.93;;;2.73;;
16760;SDS011;8498;52.516;13.790;2023-05-06T15:39:42;5.77;;;3.90;;
16760;SDS011;8498;52.516;13.790;2023-05-06T15:45:04;3.63;;;3.30;;
16760;SDS011;8498;52.516;13.790;2023-05-06T15:50:27;3.87;;;3.37;;
16760;SDS011;8498;52.516;13.790;2023-05-06T15:55:54;4.27;;;3.47;;
16760;SDS011;8498;52.516;13.790;2023-05-06T16:01:32;7.33;;;3.27;;
16760;SDS011;8498;52.516;13.790;2023-05-06T16:07:15;5.63;;;3.73;;
16760;SDS011;8498;52.516;13.790;2023-05-06T16:12:37;3.87;;;3.57;;
16760;SDS011;8498;52.516;13.790;2023-05-06T16:18:00;4.27;;;3.60;;
16760;SDS011;8498;52.516;13.790;2023-05-06T16:23:22;4.10;;;3.80;;
16760;SDS011;8498;52.516;13.790;2023-05-06T16:28:45;63.83;;;58.40;;
16760;SDS011;8498;52.516;13.790;2023-05-06T16:34:07;18.47;;;6.87;;
16760;SDS011;8498;52.516;13.790;2023-05-06T16:39:30;4.10;;;3.80;;
16760;SDS011;8498;52.516;13.790;2023-05-06T16:44:52;8.20;;;5.57;;
16760;SDS011;8498;52.516;13.790;2023-05-06T16:50:15;3.43;;;3.10;;
16760;SDS011;8498;52.516;13.790;2023-05-06T16:55:37;5.27;;;3.60;;
16760;SDS011;8498;52.516;13.790;2023-05-06T17:01:00;7.53;;;4.60;;
16760;SDS011;8498;52.516;13.790;2023-05-06T17:06:22;6.40;;;3.87;;
16760;SDS011;8498;52.516;13.790;2023-05-06T17:11:50;5.20;;;4.37;;
16760;SDS011;8498;52.516;13.790;2023-05-06T17:17:15;4.77;;;4.07;;
16760;SDS011;8498;52.516;13.790;2023-05-06T17:22:37;5.47;;;4.30;;
16760;SDS011;8498;52.516;13.790;2023-05-06T17:28:00;6.87;;;4.70;;
16760;SDS011;8498;52.516;13.790;2023-05-06T17:33:22;7.97;;;5.30;;
16760;SDS011;8498;52.516;13.790;2023-05-06T17:38:46;7.37;;;5.20;;
16760;SDS011;8498;52.516;13.790;2023-05-06T17:44:09;6.27;;;5.40;;
16760;SDS011;8498;52.516;13.790;2023-05-06T17:49:33;7.57;;;5.33;;
16760;SDS011;8498;52.516;13.790;2023-05-06T17:54:56;7.63;;;5.30;;
16760;SDS011;8498;52.516;13.790;2023-05-06T18:00:37;8.80;;;6.17;;
16760;SDS011;8498;52.516;13.790;2023-05-06T18:05:59;8.53;;;5.47;;
16760;SDS011;8498;52.516;13.790;2023-05-06T18:11:22;10.47;;;6.47;;
16760;SDS011;8498;52.516;13.790;2023-05-06T18:16:45;11.93;;;6.43;;
16760;SDS011;8498;52.516;13.790;2023-05-06T18:22:08;10.77;;;7.47;;
16760;SDS011;8498;52.516;13.790;2023-05-06T18:27:30;19.60;;;9.50;;
16760;SDS011;8498;52.516;13.790;2023-05-06T18:32:53;10.90;;;7.17;;
16760;SDS011;8498;52.516;13.790;2023-05-06T18:38:17;13.97;;;8.93;;
16760;SDS011;8498;52.516;13.790;2023-05-06T18:43:45;14.47;;;8.33;;
16760;SDS011;8498;52.516;13.790;2023-05-06T18:49:07;16.30;;;9.33;;
16760;SDS011;8498;52.516;13.790;2023-05-06T18:54:30;14.33;;;8.53;;
16760;SDS011;8498;52.516;13.790;2023-05-06T18:59:52;16.43;;;9.27;;
16760;SDS011;8498;52.516;13.790;2023-05-06T19:05:15;15.07;;;8.60;;
16760;SDS011;8498;52.516;13.790;2023-05-06T19:10:38;19.80;;;9.20;;
16760;SDS011;8498;52.516;13.790;2023-05-06T19:16:01;18.93;;;10.40;;
16760;SDS011;8498;52.516;13.790;2023-05-06T19:21:23;18.43;;;10.00;;
16760;SDS011;8498;52.516;13.790;2023-05-06T19:26:46;19.47;;;10.20;;
16760;SDS011;8498;52.516;13.790;2023-05-06T19:32:08;21.47;;;11.17;;
16760;SDS011;8498;52.516;13.790;2023-05-06T19:37:31;25.63;;;13.20;;
16760;SDS011;8498;52.516;13.790;2023-05-06T19:42:53;20.53;;;11.70;;
16760;SDS011;8498;52.516;13.790;2023-05-06T19:48:15;18.10;;;10.93;;
16760;SDS011;8498;52.516;13.790;2023-05-06T19:53:39;16.10;;;9.73;;
16760;SDS011;8498;52.516;13.790;2023-05-06T19:59:02;20.33;;;10.80;;
16760;SDS011;8498;52.516;13.790;2023-05-06T20:04:24;20.60;;;11.37;;
16760;SDS011;8498;52.516;13.790;2023-05-06T20:09:47;17.37;;;9.77;;
16760;SDS011;8498;52.516;13.790;2023-05-06T20:15:16;20.30;;;10.83;;
16760;SDS011;8498;52.516;13.790;2023-05-06T20:20:38;18.83;;;9.60;;
16760;SDS011;8498;52.516;13.790;2023-05-06T20:26:01;23.57;;;11.63;;
16760;SDS011;8498;52.516;13.790;2023-05-06T20:31:23;20.47;;;10.90;;
16760;SDS011;8498;52.516;13.790;2023-05-06T20:36:46;23.13;;;11.20;;
16760;SDS011;8498;52.516;13.790;2023-05-06T20:42:08;21.17;;;11.30;;
16760;SDS011;8498;52.516;13.790;2023-05-06T20:47:33;26.53;;;11.03;;
16760;SDS011;8498;52.516;13.790;2023-05-06T20:52:56;23.33;;;11.70;;
16760;SDS011;8498;52.516;13.790;2023-05-06T20:58:19;21.67;;;10.87;;
16760;SDS011;8498;52.516;13.790;2023-05-06T21:03:42;24.03;;;11.97;;
16760;SDS011;8498;52.516;13.790;2023-05-06T21:09:07;22.27;;;11.17;;
16760;SDS011;8498;52.516;13.790;2023-05-06T21:14:29;19.17;;;11.67;;
16760;SDS011;8498;52.516;13.790;2023-05-06T21:19:52;21.07;;;10.93;;
16760;SDS011;8498;52.516;13.790;2023-05-06T21:25:14;17.90;;;10.77;;
16760;SDS011;8498;52.516;13.790;2023-05-06T21:30:37;21.30;;;11.43;;
16760;SDS011;8498;52.516;13.790;2023-05-06T21:36:00;20.23;;;10.47;;
16760;SDS011;8498;52.516;13.790;2023-05-06T21:41:23;19.30;;;10.70;;
16760;SDS011;8498;52.516;13.790;2023-05-06T21:46:46;19.80;;;10.73;;
16760;SDS011;8498;52.516;13.790;2023-05-06T21:52:08;17.87;;;10.63;;
16760;SDS011;8498;52.516;13.790;2023-05-06T21:57:31;17.03;;;9.43;;
16760;SDS011;8498;52.516;13.790;2023-05-06T22:02:53;19.80;;;10.10;;
16760;SDS011;8498;52.516;13.790;2023-05-06T22:08:16;17.53;;;10.40;;
16760;SDS011;8498;52.516;13.790;2023-05-06T22:13:39;23.90;;;12.17;;
16760;SDS011;8498;52.516;13.790;2023-05-06T22:19:02;22.60;;;11.30;;
16760;SDS011;8498;52.516;13.790;2023-05-06T22:24:27;20.17;;;11.00;;
16760;SDS011;8498;52.516;13.790;2023-05-06T22:29:50;18.70;;;10.83;;
16760;SDS011;8498;52.516;13.790;2023-05-06T22:35:12;19.27;;;11.00;;
16760;SDS011;8498;52.516;13.790;2023-05-06T22:40:35;22.20;;;11.17;;
16760;SDS011;8498;52.516;13.790;2023-05-06T22:45:57;19.30;;;11.00;;
16760;SDS011;8498;52.516;13.790;2023-05-06T22:51:19;20.90;;;11.83;;
16760;SDS011;8498;52.516;13.790;2023-05-06T22:56:42;22.13;;;11.20;;
16760;SDS011;8498;52.516;13.790;2023-05-06T23:02:05;18.50;;;10.70;;
16760;SDS011;8498;52.516;13.790;2023-05-06T23:07:27;21.60;;;10.97;;
16760;SDS011;8498;52.516;13.790;2023-05-06T23:12:49;18.97;;;10.67;;
16760;SDS011;8498;52.516;13.790;2023-05-06T23:18:12;21.83;;;10.63;;
16760;SDS011;8498;52.516;13.790;2023-05-06T23:23:34;17.00;;;10.47;;
16760;SDS011;8498;52.516;13.790;2023-05-06T23:28:57;20.40;;;9.83;;
16760;SDS011;8498;52.516;13.790;2023-05-06T23:34:19;23.07;;;10.77;;
16760;SDS011;8498;52.516;13.790;2023-05-06T23:39:41;16.03;;;10.23;;
16760;SDS011;8498;52.516;13.790;2023-05-06T23:45:04;18.10;;;10.50;;
16760;SDS011;8498;52.516;13.790;2023-05-06T23:50:27;19.53;;;10.37;;
16760;SDS011;8498;52.516;13.790;2023-05-06T23:55:50;19.77;;;10.23;;
